sensor_id;sensor_type;location;lat;lon;timestamp;P1;durP1;ratioP1;P2;durP2;ratioP2
71975;SDS011;60680;52.182;5.398;2022-09-21T00:01:17;4.10;;;1.70;;
71975;SDS011;60680;52.182;5.398;2022-09-21T00:03:59;4.97;;;1.35;;
71975;SDS011;60680;52.182;5.398;2022-09-21T00:06:29;4.32;;;1.45;;
71975;SDS011;60680;52.182;5.398;2022-09-21T00:08:57;5.23;;;1.13;;
71975;SDS011;60680;52.182;5.398;2022-09-21T00:11:28;5.30;;;1.20;;
71975;SDS011;60680;52.182;5.398;2022-09-21T00:14:00;4.07;;;1.42;;
71975;SDS011;60680;52.182;5.398;2022-09-21T00:16:30;4.07;;;1.40;;
71975;SDS011;60680;52.182;5.398;2022-09-21T00:18:57;3.67;;;1.40;;
71975;SDS011;60680;52.182;5.398;2022-09-21T00:21:25;3.00;;;1.20;;
71975;SDS011;60680;52.182;5.398;2022-09-21T00:23:53;5.38;;;1.27;;
71975;SDS011;60680;52.182;5.398;2022-09-21T00:26:20;2.80;;;0.90;;
71975;SDS011;60680;52.182;5.398;2022-09-21T00:28:52;5.50;;;1.58;;
71975;SDS011;60680;52.182;5.398;2022-09-21T00:31:20;3.67;;;1.27;;
71975;SDS011;60680;52.182;5.398;2022-09-21T00:33:48;3.57;;;1.30;;
71975;SDS011;60680;52.182;5.398;2022-09-21T00:36:17;4.80;;;1.38;;
71975;SDS011;60680;52.182;5.398;2022-09-21T00:38:50;5.22;;;1.20;;
71975;SDS011;60680;52.182;5.398;2022-09-21T00:41:18;3.72;;;1.27;;
71975;SDS011;60680;52.182;5.398;2022-09-21T00:43:47;3.17;;;1.02;;
71975;SDS011;60680;52.182;5.398;2022-09-21T00:46:34;4.17;;;1.43;;
71975;SDS011;60680;52.182;5.398;2022-09-21T00:49:04;2.80;;;1.10;;
71975;SDS011;60680;52.182;5.398;2022-09-21T00:51:32;3.92;;;1.20;;
71975;SDS011;60680;52.182;5.398;2022-09-21T00:54:01;4.43;;;1.33;;
71975;SDS011;60680;52.182;5.398;2022-09-21T00:56:32;4.63;;;1.20;;
71975;SDS011;60680;52.182;5.398;2022-09-21T00:59:00;4.27;;;1.63;;
71975;SDS011;60680;52.182;5.398;2022-09-21T01:01:28;2.83;;;1.10;;
71975;SDS011;60680;52.182;5.398;2022-09-21T01:03:55;4.03;;;1.40;;
71975;SDS011;60680;52.182;5.398;2022-09-21T01:06:22;3.22;;;1.02;;
71975;SDS011;60680;52.182;5.398;2022-09-21T01:08:50;4.30;;;1.30;;
71975;SDS011;60680;52.182;5.398;2022-09-21T01:11:25;3.93;;;1.53;;
71975;SDS011;60680;52.182;5.398;2022-09-21T01:22:09;3.05;;;1.08;;
71975;SDS011;60680;52.182;5.398;2022-09-21T01:24:49;5.57;;;1.50;;
71975;SDS011;60680;52.182;5.398;2022-09-21T01:27:47;3.42;;;1.35;;
71975;SDS011;60680;52.182;5.398;2022-09-21T01:30:30;4.32;;;1.30;;
71975;SDS011;60680;52.182;5.398;2022-09-21T01:33:10;6.15;;;1.70;;
71975;SDS011;60680;52.182;5.398;2022-09-21T01:35:43;2.53;;;0.93;;
71975;SDS011;60680;52.182;5.398;2022-09-21T01:38:34;3.67;;;1.20;;
71975;SDS011;60680;52.182;5.398;2022-09-21T01:41:05;3.05;;;1.20;;
71975;SDS011;60680;52.182;5.398;2022-09-21T01:43:38;4.05;;;1.15;;
71975;SDS011;60680;52.182;5.398;2022-09-21T01:46:10;4.30;;;1.38;;
71975;SDS011;60680;52.182;5.398;2022-09-21T01:48:43;3.00;;;1.40;;
71975;SDS011;60680;52.182;5.398;2022-09-21T01:51:15;3.63;;;1.33;;
71975;SDS011;60680;52.182;5.398;2022-09-21T01:53:50;5.72;;;1.60;;
71975;SDS011;60680;52.182;5.398;2022-09-21T01:56:23;5.22;;;1.75;;
71975;SDS011;60680;52.182;5.398;2022-09-21T01:59:06;3.42;;;1.35;;
71975;SDS011;60680;52.182;5.398;2022-09-21T02:01:49;3.22;;;1.80;;
71975;SDS011;60680;52.182;5.398;2022-09-21T02:04:21;2.83;;;1.50;;
71975;SDS011;60680;52.182;5.398;2022-09-21T02:06:48;4.15;;;1.50;;
71975;SDS011;60680;52.182;5.398;2022-09-21T02:09:16;2.53;;;1.75;;
71975;SDS011;60680;52.182;5.398;2022-09-21T02:11:43;3.00;;;1.52;;
71975;SDS011;60680;52.182;5.398;2022-09-21T02:14:10;4.47;;;1.40;;
71975;SDS011;60680;52.182;5.398;2022-09-21T02:16:46;2.57;;;1.30;;
71975;SDS011;60680;52.182;5.398;2022-09-21T02:26:03;3.40;;;1.25;;
71975;SDS011;60680;52.182;5.398;2022-09-21T02:29:09;3.20;;;1.55;;
71975;SDS011;60680;52.182;5.398;2022-09-21T02:31:39;4.17;;;1.50;;
71975;SDS011;60680;52.182;5.398;2022-09-21T02:39:30;4.05;;;1.48;;
71975;SDS011;60680;52.182;5.398;2022-09-21T02:42:17;4.20;;;1.55;;
71975;SDS011;60680;52.182;5.398;2022-09-21T02:44:50;6.00;;;1.43;;
71975;SDS011;60680;52.182;5.398;2022-09-21T02:47:24;2.33;;;1.35;;
71975;SDS011;60680;52.182;5.398;2022-09-21T02:50:17;2.78;;;1.55;;
71975;SDS011;60680;52.182;5.398;2022-09-21T02:52:48;4.22;;;1.65;;
71975;SDS011;60680;52.182;5.398;2022-09-21T02:55:16;4.80;;;1.63;;
71975;SDS011;60680;52.182;5.398;2022-09-21T02:57:44;3.40;;;1.70;;
71975;SDS011;60680;52.182;5.398;2022-09-21T03:00:13;4.57;;;1.80;;
71975;SDS011;60680;52.182;5.398;2022-09-21T03:02:42;2.65;;;1.30;;
71975;SDS011;60680;52.182;5.398;2022-09-21T03:05:10;6.57;;;1.88;;
71975;SDS011;60680;52.182;5.398;2022-09-21T03:07:38;3.42;;;1.45;;
71975;SDS011;60680;52.182;5.398;2022-09-21T03:10:04;2.43;;;1.37;;
71975;SDS011;60680;52.182;5.398;2022-09-21T03:12:33;4.55;;;1.48;;
71975;SDS011;60680;52.182;5.398;2022-09-21T03:15:00;3.58;;;1.60;;
71975;SDS011;60680;52.182;5.398;2022-09-21T03:17:26;4.63;;;1.85;;
71975;SDS011;60680;52.182;5.398;2022-09-21T03:19:52;3.15;;;1.30;;
71975;SDS011;60680;52.182;5.398;2022-09-21T03:22:23;4.00;;;1.50;;
71975;SDS011;60680;52.182;5.398;2022-09-21T03:24:49;5.47;;;1.85;;
71975;SDS011;60680;52.182;5.398;2022-09-21T03:27:17;2.70;;;1.42;;
71975;SDS011;60680;52.182;5.398;2022-09-21T03:29:45;6.13;;;1.90;;
71975;SDS011;60680;52.182;5.398;2022-09-21T03:32:12;3.15;;;1.52;;
71975;SDS011;60680;52.182;5.398;2022-09-21T03:34:39;4.83;;;1.57;;
71975;SDS011;60680;52.182;5.398;2022-09-21T03:37:07;4.45;;;1.48;;
71975;SDS011;60680;52.182;5.398;2022-09-21T03:39:34;4.18;;;1.50;;
71975;SDS011;60680;52.182;5.398;2022-09-21T03:42:01;4.43;;;1.45;;
71975;SDS011;60680;52.182;5.398;2022-09-21T03:44:29;3.75;;;1.40;;
71975;SDS011;60680;52.182;5.398;2022-09-21T03:46:55;3.33;;;1.80;;
71975;SDS011;60680;52.182;5.398;2022-09-21T03:49:23;2.80;;;1.40;;
71975;SDS011;60680;52.182;5.398;2022-09-21T03:51:49;3.47;;;1.23;;
71975;SDS011;60680;52.182;5.398;2022-09-21T03:54:16;4.85;;;1.50;;
71975;SDS011;60680;52.182;5.398;2022-09-21T03:56:42;3.22;;;1.55;;
71975;SDS011;60680;52.182;5.398;2022-09-21T03:59:09;4.37;;;1.70;;
71975;SDS011;60680;52.182;5.398;2022-09-21T04:01:39;5.00;;;1.48;;
71975;SDS011;60680;52.182;5.398;2022-09-21T04:04:06;3.38;;;1.85;;
71975;SDS011;60680;52.182;5.398;2022-09-21T04:06:32;4.82;;;2.00;;
71975;SDS011;60680;52.182;5.398;2022-09-21T04:08:59;3.75;;;1.65;;
71975;SDS011;60680;52.182;5.398;2022-09-21T04:11:28;2.80;;;1.20;;
71975;SDS011;60680;52.182;5.398;2022-09-21T04:13:58;3.30;;;1.38;;
71975;SDS011;60680;52.182;5.398;2022-09-21T04:16:25;3.33;;;1.50;;
71975;SDS011;60680;52.182;5.398;2022-09-21T04:18:52;4.40;;;1.45;;
71975;SDS011;60680;52.182;5.398;2022-09-21T04:21:19;5.47;;;1.42;;
71975;SDS011;60680;52.182;5.398;2022-09-21T04:23:47;5.50;;;1.60;;
71975;SDS011;60680;52.182;5.398;2022-09-21T04:26:20;3.83;;;1.33;;
71975;SDS011;60680;52.182;5.398;2022-09-21T04:28:49;4.18;;;1.50;;
71975;SDS011;60680;52.182;5.398;2022-09-21T04:31:16;3.90;;;1.60;;
71975;SDS011;60680;52.182;5.398;2022-09-21T04:33:43;3.13;;;1.30;;
71975;SDS011;60680;52.182;5.398;2022-09-21T04:36:09;4.33;;;1.50;;
71975;SDS011;60680;52.182;5.398;2022-09-21T04:38:36;3.05;;;1.27;;
71975;SDS011;60680;52.182;5.398;2022-09-21T04:41:03;3.25;;;1.60;;
71975;SDS011;60680;52.182;5.398;2022-09-21T04:43:29;2.38;;;1.20;;
71975;SDS011;60680;52.182;5.398;2022-09-21T04:45:56;3.63;;;1.60;;
71975;SDS011;60680;52.182;5.398;2022-09-21T04:48:22;3.50;;;1.67;;
71975;SDS011;60680;52.182;5.398;2022-09-21T04:50:49;3.80;;;1.13;;
71975;SDS011;60680;52.182;5.398;2022-09-21T04:53:16;4.35;;;1.77;;
71975;SDS011;60680;52.182;5.398;2022-09-21T04:55:43;3.15;;;1.40;;
71975;SDS011;60680;52.182;5.398;2022-09-21T04:58:10;3.60;;;1.35;;
71975;SDS011;60680;52.182;5.398;2022-09-21T05:00:37;3.53;;;1.53;;
71975;SDS011;60680;52.182;5.398;2022-09-21T05:03:03;3.33;;;1.30;;
71975;SDS011;60680;52.182;5.398;2022-09-21T05:05:30;4.57;;;1.50;;
71975;SDS011;60680;52.182;5.398;2022-09-21T05:07:57;2.08;;;1.30;;
71975;SDS011;60680;52.182;5.398;2022-09-21T05:10:23;3.40;;;1.73;;
71975;SDS011;60680;52.182;5.398;2022-09-21T05:12:50;3.90;;;1.70;;
71975;SDS011;60680;52.182;5.398;2022-09-21T05:15:17;3.35;;;1.80;;
71975;SDS011;60680;52.182;5.398;2022-09-21T05:17:44;2.95;;;1.58;;
71975;SDS011;60680;52.182;5.398;2022-09-21T05:20:11;3.25;;;1.50;;
71975;SDS011;60680;52.182;5.398;2022-09-21T05:22:38;3.67;;;1.60;;
71975;SDS011;60680;52.182;5.398;2022-09-21T05:25:04;3.67;;;1.37;;
71975;SDS011;60680;52.182;5.398;2022-09-21T05:27:31;2.60;;;1.30;;
71975;SDS011;60680;52.182;5.398;2022-09-21T05:29:58;1.85;;;1.05;;
71975;SDS011;60680;52.182;5.398;2022-09-21T05:32:31;2.97;;;1.58;;
71975;SDS011;60680;52.182;5.398;2022-09-21T05:37:53;5.70;;;1.53;;
71975;SDS011;60680;52.182;5.398;2022-09-21T05:40:24;4.32;;;1.60;;
71975;SDS011;60680;52.182;5.398;2022-09-21T05:42:51;3.60;;;1.50;;
71975;SDS011;60680;52.182;5.398;2022-09-21T05:45:18;5.00;;;1.58;;
71975;SDS011;60680;52.182;5.398;2022-09-21T05:47:52;3.28;;;1.50;;
71975;SDS011;60680;52.182;5.398;2022-09-21T05:56:05;3.38;;;1.50;;
71975;SDS011;60680;52.182;5.398;2022-09-21T06:01:25;5.50;;;1.98;;
71975;SDS011;60680;52.182;5.398;2022-09-21T06:04:01;4.80;;;1.80;;
71975;SDS011;60680;52.182;5.398;2022-09-21T06:06:28;5.93;;;1.60;;
71975;SDS011;60680;52.182;5.398;2022-09-21T06:08:55;4.95;;;1.80;;
71975;SDS011;60680;52.182;5.398;2022-09-21T06:11:21;4.05;;;1.58;;
71975;SDS011;60680;52.182;5.398;2022-09-21T06:13:48;6.47;;;2.25;;
71975;SDS011;60680;52.182;5.398;2022-09-21T06:16:14;6.10;;;1.87;;
71975;SDS011;60680;52.182;5.398;2022-09-21T06:18:40;3.60;;;1.73;;
71975;SDS011;60680;52.182;5.398;2022-09-21T06:21:07;4.13;;;1.67;;
71975;SDS011;60680;52.182;5.398;2022-09-21T06:23:34;4.82;;;1.70;;
71975;SDS011;60680;52.182;5.398;2022-09-21T06:26:01;5.22;;;1.95;;
71975;SDS011;60680;52.182;5.398;2022-09-21T06:28:27;5.50;;;2.10;;
71975;SDS011;60680;52.182;5.398;2022-09-21T06:30:55;4.68;;;1.92;;
71975;SDS011;60680;52.182;5.398;2022-09-21T06:33:23;4.10;;;1.95;;
71975;SDS011;60680;52.182;5.398;2022-09-21T06:35:50;4.07;;;1.80;;
71975;SDS011;60680;52.182;5.398;2022-09-21T06:38:17;5.07;;;2.50;;
71975;SDS011;60680;52.182;5.398;2022-09-21T06:40:43;4.50;;;1.80;;
71975;SDS011;60680;52.182;5.398;2022-09-21T06:43:10;8.48;;;1.88;;
71975;SDS011;60680;52.182;5.398;2022-09-21T06:45:36;3.88;;;1.70;;
71975;SDS011;60680;52.182;5.398;2022-09-21T06:48:03;5.68;;;1.70;;
71975;SDS011;60680;52.182;5.398;2022-09-21T06:50:30;5.93;;;1.95;;
71975;SDS011;60680;52.182;5.398;2022-09-21T06:52:58;5.43;;;1.90;;
71975;SDS011;60680;52.182;5.398;2022-09-21T06:55:25;6.00;;;1.77;;
71975;SDS011;60680;52.182;5.398;2022-09-21T06:57:52;5.18;;;2.17;;
71975;SDS011;60680;52.182;5.398;2022-09-21T07:00:20;5.00;;;1.92;;
71975;SDS011;60680;52.182;5.398;2022-09-21T07:02:46;4.10;;;1.90;;
71975;SDS011;60680;52.182;5.398;2022-09-21T07:05:13;2.97;;;1.73;;
71975;SDS011;60680;52.182;5.398;2022-09-21T07:07:39;10.00;;;2.70;;
71975;SDS011;60680;52.182;5.398;2022-09-21T07:10:06;6.57;;;2.70;;
71975;SDS011;60680;52.182;5.398;2022-09-21T07:12:41;5.65;;;2.38;;
71975;SDS011;60680;52.182;5.398;2022-09-21T07:15:08;6.47;;;2.35;;
71975;SDS011;60680;52.182;5.398;2022-09-21T07:17:36;5.80;;;3.00;;
71975;SDS011;60680;52.182;5.398;2022-09-21T07:20:04;5.00;;;2.63;;
71975;SDS011;60680;52.182;5.398;2022-09-21T07:22:33;6.40;;;2.83;;
71975;SDS011;60680;52.182;5.398;2022-09-21T07:25:00;4.93;;;3.10;;
71975;SDS011;60680;52.182;5.398;2022-09-21T07:27:28;6.38;;;3.20;;
71975;SDS011;60680;52.182;5.398;2022-09-21T07:29:55;4.30;;;2.50;;
71975;SDS011;60680;52.182;5.398;2022-09-21T07:32:22;5.28;;;2.67;;
71975;SDS011;60680;52.182;5.398;2022-09-21T07:34:49;6.82;;;3.22;;
71975;SDS011;60680;52.182;5.398;2022-09-21T07:37:15;6.45;;;2.40;;
71975;SDS011;60680;52.182;5.398;2022-09-21T07:39:42;6.05;;;2.88;;
71975;SDS011;60680;52.182;5.398;2022-09-21T07:42:10;5.30;;;2.53;;
71975;SDS011;60680;52.182;5.398;2022-09-21T07:44:36;5.47;;;2.22;;
71975;SDS011;60680;52.182;5.398;2022-09-21T07:47:06;6.47;;;2.80;;
71975;SDS011;60680;52.182;5.398;2022-09-21T07:49:43;6.00;;;2.85;;
71975;SDS011;60680;52.182;5.398;2022-09-21T07:54:38;5.97;;;2.63;;
71975;SDS011;60680;52.182;5.398;2022-09-21T07:57:04;4.40;;;2.50;;
71975;SDS011;60680;52.182;5.398;2022-09-21T07:59:49;6.90;;;2.70;;
71975;SDS011;60680;52.182;5.398;2022-09-21T08:02:16;4.50;;;2.05;;
71975;SDS011;60680;52.182;5.398;2022-09-21T08:04:43;3.95;;;2.92;;
71975;SDS011;60680;52.182;5.398;2022-09-21T08:07:10;6.70;;;2.40;;
71975;SDS011;60680;52.182;5.398;2022-09-21T08:09:36;6.15;;;2.35;;
71975;SDS011;60680;52.182;5.398;2022-09-21T08:12:02;3.95;;;1.83;;
71975;SDS011;60680;52.182;5.398;2022-09-21T08:14:29;4.15;;;2.00;;
71975;SDS011;60680;52.182;5.398;2022-09-21T08:16:57;5.40;;;2.17;;
71975;SDS011;60680;52.182;5.398;2022-09-21T08:19:23;3.08;;;1.90;;
71975;SDS011;60680;52.182;5.398;2022-09-21T08:21:52;3.28;;;1.50;;
71975;SDS011;60680;52.182;5.398;2022-09-21T08:24:22;6.00;;;2.10;;
71975;SDS011;60680;52.182;5.398;2022-09-21T08:26:50;6.57;;;1.48;;
71975;SDS011;60680;52.182;5.398;2022-09-21T08:29:17;3.58;;;1.35;;
71975;SDS011;60680;52.182;5.398;2022-09-21T08:31:44;3.15;;;1.33;;
71975;SDS011;60680;52.182;5.398;2022-09-21T08:34:12;4.93;;;1.42;;
71975;SDS011;60680;52.182;5.398;2022-09-21T08:36:39;3.03;;;1.23;;
71975;SDS011;60680;52.182;5.398;2022-09-21T08:39:09;3.97;;;1.10;;
71975;SDS011;60680;52.182;5.398;2022-09-21T08:47:26;5.93;;;1.10;;
71975;SDS011;60680;52.182;5.398;2022-09-21T08:49:56;2.65;;;0.77;;
71975;SDS011;60680;52.182;5.398;2022-09-21T08:52:25;4.38;;;1.00;;
71975;SDS011;60680;52.182;5.398;2022-09-21T08:57:31;3.30;;;0.80;;
71975;SDS011;60680;52.182;5.398;2022-09-21T08:59:59;4.13;;;0.80;;
71975;SDS011;60680;52.182;5.398;2022-09-21T09:02:37;2.17;;;0.52;;
71975;SDS011;60680;52.182;5.398;2022-09-21T09:05:15;2.55;;;0.50;;
71975;SDS011;60680;52.182;5.398;2022-09-21T09:18:37;8.25;;;0.80;;
71975;SDS011;60680;52.182;5.398;2022-09-21T09:21:14;5.10;;;0.40;;
71975;SDS011;60680;52.182;5.398;2022-09-21T09:24:01;1.45;;;0.30;;
71975;SDS011;60680;52.182;5.398;2022-09-21T09:26:33;3.87;;;0.83;;
71975;SDS011;60680;52.182;5.398;2022-09-21T09:29:13;4.15;;;0.47;;
71975;SDS011;60680;52.182;5.398;2022-09-21T09:32:17;4.95;;;0.40;;
71975;SDS011;60680;52.182;5.398;2022-09-21T09:34:48;4.10;;;0.40;;
71975;SDS011;60680;52.182;5.398;2022-09-21T09:37:22;3.75;;;0.47;;
71975;SDS011;60680;52.182;5.398;2022-09-21T09:39:53;5.10;;;0.40;;
71975;SDS011;60680;52.182;5.398;2022-09-21T09:51:02;2.97;;;0.30;;
71975;SDS011;60680;52.182;5.398;2022-09-21T09:53:28;5.20;;;0.67;;
71975;SDS011;60680;52.182;5.398;2022-09-21T09:55:56;5.30;;;0.55;;
71975;SDS011;60680;52.182;5.398;2022-09-21T09:58:36;3.15;;;0.30;;
71975;SDS011;60680;52.182;5.398;2022-09-21T10:01:07;3.47;;;0.30;;
71975;SDS011;60680;52.182;5.398;2022-09-21T10:03:33;2.45;;;0.30;;
71975;SDS011;60680;52.182;5.398;2022-09-21T10:06:01;2.50;;;0.30;;
71975;SDS011;60680;52.182;5.398;2022-09-21T10:08:29;2.83;;;0.40;;
71975;SDS011;60680;52.182;5.398;2022-09-21T10:11:01;1.25;;;0.28;;
71975;SDS011;60680;52.182;5.398;2022-09-21T10:13:30;0.98;;;0.28;;
71975;SDS011;60680;52.182;5.398;2022-09-21T10:16:11;2.10;;;0.28;;
71975;SDS011;60680;52.182;5.398;2022-09-21T10:18:44;1.53;;;0.30;;
71975;SDS011;60680;52.182;5.398;2022-09-21T10:21:24;2.28;;;0.22;;
71975;SDS011;60680;52.182;5.398;2022-09-21T10:23:55;3.33;;;0.43;;
71975;SDS011;60680;52.182;5.398;2022-09-21T10:26:29;2.15;;;0.30;;
71975;SDS011;60680;52.182;5.398;2022-09-21T10:28:59;2.00;;;0.30;;
71975;SDS011;60680;52.182;5.398;2022-09-21T10:31:55;3.77;;;0.47;;
71975;SDS011;60680;52.182;5.398;2022-09-21T10:34:30;5.05;;;0.50;;
71975;SDS011;60680;52.182;5.398;2022-09-21T10:36:59;2.15;;;0.20;;
71975;SDS011;60680;52.182;5.398;2022-09-21T10:39:29;1.70;;;0.30;;
71975;SDS011;60680;52.182;5.398;2022-09-21T10:49:45;3.55;;;0.50;;
71975;SDS011;60680;52.182;5.398;2022-09-21T10:52:19;4.97;;;0.40;;
71975;SDS011;60680;52.182;5.398;2022-09-21T10:54:50;3.28;;;0.55;;
71975;SDS011;60680;52.182;5.398;2022-09-21T10:57:21;2.20;;;0.57;;
71975;SDS011;60680;52.182;5.398;2022-09-21T10:59:50;4.20;;;0.20;;
71975;SDS011;60680;52.182;5.398;2022-09-21T11:04:52;3.78;;;0.30;;
71975;SDS011;60680;52.182;5.398;2022-09-21T11:07:38;1.55;;;0.30;;
71975;SDS011;60680;52.182;5.398;2022-09-21T11:15:43;5.53;;;0.70;;
71975;SDS011;60680;52.182;5.398;2022-09-21T11:21:04;2.83;;;0.30;;
71975;SDS011;60680;52.182;5.398;2022-09-21T11:26:37;3.60;;;0.30;;
71975;SDS011;60680;52.182;5.398;2022-09-21T11:37:08;4.73;;;0.40;;
71975;SDS011;60680;52.182;5.398;2022-09-21T11:42:26;1.02;;;0.20;;
71975;SDS011;60680;52.182;5.398;2022-09-21T11:44:59;1.52;;;0.20;;
71975;SDS011;60680;52.182;5.398;2022-09-21T11:47:43;0.77;;;0.20;;
71975;SDS011;60680;52.182;5.398;2022-09-21T11:53:17;1.23;;;0.20;;
71975;SDS011;60680;52.182;5.398;2022-09-21T11:56:13;1.05;;;0.20;;
71975;SDS011;60680;52.182;5.398;2022-09-21T12:13:04;0.68;;;0.20;;
71975;SDS011;60680;52.182;5.398;2022-09-21T12:15:40;2.78;;;0.20;;
71975;SDS011;60680;52.182;5.398;2022-09-21T12:18:17;3.30;;;0.30;;
71975;SDS011;60680;52.182;5.398;2022-09-21T12:21:11;1.73;;;0.20;;
71975;SDS011;60680;52.182;5.398;2022-09-21T12:23:45;1.55;;;0.20;;
71975;SDS011;60680;52.182;5.398;2022-09-21T12:26:24;0.82;;;0.30;;
71975;SDS011;60680;52.182;5.398;2022-09-21T12:28:56;2.88;;;0.30;;
71975;SDS011;60680;52.182;5.398;2022-09-21T12:31:29;3.63;;;0.20;;
71975;SDS011;60680;52.182;5.398;2022-09-21T12:34:09;1.65;;;0.17;;
71975;SDS011;60680;52.182;5.398;2022-09-21T12:36:43;3.28;;;0.82;;
71975;SDS011;60680;52.182;5.398;2022-09-21T12:39:31;1.02;;;0.20;;
71975;SDS011;60680;52.182;5.398;2022-09-21T12:44:54;1.33;;;0.27;;
71975;SDS011;60680;52.182;5.398;2022-09-21T12:53:17;2.92;;;0.28;;
71975;SDS011;60680;52.182;5.398;2022-09-21T13:01:44;1.88;;;0.30;;
71975;SDS011;60680;52.182;5.398;2022-09-21T13:08:01;2.45;;;0.30;;
71975;SDS011;60680;52.182;5.398;2022-09-21T13:10:40;2.53;;;0.10;;
71975;SDS011;60680;52.182;5.398;2022-09-21T13:13:15;2.20;;;0.40;;
71975;SDS011;60680;52.182;5.398;2022-09-21T13:15:47;2.60;;;0.25;;
71975;SDS011;60680;52.182;5.398;2022-09-21T13:18:21;1.95;;;0.20;;
71975;SDS011;60680;52.182;5.398;2022-09-21T13:20:51;2.25;;;0.30;;
71975;SDS011;60680;52.182;5.398;2022-09-21T13:23:25;1.95;;;0.30;;
71975;SDS011;60680;52.182;5.398;2022-09-21T13:26:10;2.57;;;0.20;;
71975;SDS011;60680;52.182;5.398;2022-09-21T13:28:39;0.95;;;0.20;;
71975;SDS011;60680;52.182;5.398;2022-09-21T13:36:40;3.78;;;0.30;;
71975;SDS011;60680;52.182;5.398;2022-09-21T13:41:35;3.53;;;0.40;;
71975;SDS011;60680;52.182;5.398;2022-09-21T13:44:56;4.40;;;0.55;;
71975;SDS011;60680;52.182;5.398;2022-09-21T13:47:15;0.90;;;0.10;;
71975;SDS011;60680;52.182;5.398;2022-09-21T13:49:55;3.25;;;0.20;;
71975;SDS011;60680;52.182;5.398;2022-09-21T13:52:27;2.73;;;0.20;;
71975;SDS011;60680;52.182;5.398;2022-09-21T13:54:58;1.75;;;0.20;;
71975;SDS011;60680;52.182;5.398;2022-09-21T13:57:31;4.32;;;0.47;;
71975;SDS011;60680;52.182;5.398;2022-09-21T14:02:35;2.75;;;0.75;;
71975;SDS011;60680;52.182;5.398;2022-09-21T14:07:54;6.68;;;0.70;;
71975;SDS011;60680;52.182;5.398;2022-09-21T14:10:23;3.15;;;0.20;;
71975;SDS011;60680;52.182;5.398;2022-09-21T14:12:50;2.63;;;0.50;;
71975;SDS011;60680;52.182;5.398;2022-09-21T14:17:44;1.80;;;0.47;;
71975;SDS011;60680;52.182;5.398;2022-09-21T14:20:31;5.53;;;0.50;;
71975;SDS011;60680;52.182;5.398;2022-09-21T14:25:49;2.60;;;0.30;;
71975;SDS011;60680;52.182;5.398;2022-09-21T14:28:21;4.57;;;0.40;;
71975;SDS011;60680;52.182;5.398;2022-09-21T14:34:09;1.40;;;0.22;;
71975;SDS011;60680;52.182;5.398;2022-09-21T14:36:43;2.85;;;0.20;;
71975;SDS011;60680;52.182;5.398;2022-09-21T14:39:16;1.90;;;0.40;;
71975;SDS011;60680;52.182;5.398;2022-09-21T14:41:47;2.80;;;0.40;;
71975;SDS011;60680;52.182;5.398;2022-09-21T14:44:20;2.73;;;0.30;;
71975;SDS011;60680;52.182;5.398;2022-09-21T14:49:29;2.13;;;0.30;;
71975;SDS011;60680;52.182;5.398;2022-09-21T14:52:31;5.20;;;0.40;;
71975;SDS011;60680;52.182;5.398;2022-09-21T14:55:26;3.55;;;0.28;;
71975;SDS011;60680;52.182;5.398;2022-09-21T15:01:14;1.27;;;0.30;;
71975;SDS011;60680;52.182;5.398;2022-09-21T15:04:19;4.60;;;0.40;;
71975;SDS011;60680;52.182;5.398;2022-09-21T15:10:23;1.55;;;0.20;;
71975;SDS011;60680;52.182;5.398;2022-09-21T15:15:56;2.03;;;0.20;;
71975;SDS011;60680;52.182;5.398;2022-09-21T15:18:32;1.63;;;0.30;;
71975;SDS011;60680;52.182;5.398;2022-09-21T15:21:17;1.50;;;0.15;;
71975;SDS011;60680;52.182;5.398;2022-09-21T15:23:52;4.15;;;0.30;;
71975;SDS011;60680;52.182;5.398;2022-09-21T15:26:20;2.60;;;0.20;;
71975;SDS011;60680;52.182;5.398;2022-09-21T15:28:52;3.45;;;0.20;;
71975;SDS011;60680;52.182;5.398;2022-09-21T15:31:37;1.60;;;0.30;;
71975;SDS011;60680;52.182;5.398;2022-09-21T15:34:05;3.70;;;0.22;;
71975;SDS011;60680;52.182;5.398;2022-09-21T15:36:35;3.08;;;0.22;;
71975;SDS011;60680;52.182;5.398;2022-09-21T15:39:04;1.53;;;0.20;;
71975;SDS011;60680;52.182;5.398;2022-09-21T15:41:35;1.48;;;0.15;;
71975;SDS011;60680;52.182;5.398;2022-09-21T15:44:20;2.90;;;0.40;;
71975;SDS011;60680;52.182;5.398;2022-09-21T15:46:51;2.45;;;0.30;;
71975;SDS011;60680;52.182;5.398;2022-09-21T15:49:23;1.90;;;0.20;;
71975;SDS011;60680;52.182;5.398;2022-09-21T15:51:51;2.50;;;0.30;;
71975;SDS011;60680;52.182;5.398;2022-09-21T15:54:47;2.20;;;0.40;;
71975;SDS011;60680;52.182;5.398;2022-09-21T15:57:31;4.22;;;0.20;;
71975;SDS011;60680;52.182;5.398;2022-09-21T16:02:58;1.92;;;0.40;;
71975;SDS011;60680;52.182;5.398;2022-09-21T16:05:44;2.70;;;0.27;;
71975;SDS011;60680;52.182;5.398;2022-09-21T16:08:27;1.42;;;0.20;;
71975;SDS011;60680;52.182;5.398;2022-09-21T16:11:09;2.05;;;0.20;;
71975;SDS011;60680;52.182;5.398;2022-09-21T16:13:39;3.42;;;0.30;;
71975;SDS011;60680;52.182;5.398;2022-09-21T16:16:25;2.15;;;0.20;;
71975;SDS011;60680;52.182;5.398;2022-09-21T16:18:53;1.77;;;0.20;;
71975;SDS011;60680;52.182;5.398;2022-09-21T16:23:55;2.00;;;0.20;;
71975;SDS011;60680;52.182;5.398;2022-09-21T16:26:25;2.92;;;0.20;;
71975;SDS011;60680;52.182;5.398;2022-09-21T16:31:43;3.07;;;0.30;;
71975;SDS011;60680;52.182;5.398;2022-09-21T16:34:31;1.33;;;0.20;;
71975;SDS011;60680;52.182;5.398;2022-09-21T16:37:00;0.80;;;0.28;;
71975;SDS011;60680;52.182;5.398;2022-09-21T16:39:27;2.75;;;0.20;;
71975;SDS011;60680;52.182;5.398;2022-09-21T16:41:55;7.70;;;0.50;;
71975;SDS011;60680;52.182;5.398;2022-09-21T16:44:26;2.77;;;0.20;;
71975;SDS011;60680;52.182;5.398;2022-09-21T16:47:00;2.33;;;0.30;;
71975;SDS011;60680;52.182;5.398;2022-09-21T16:49:29;1.65;;;0.50;;
71975;SDS011;60680;52.182;5.398;2022-09-21T16:51:58;1.27;;;0.20;;
71975;SDS011;60680;52.182;5.398;2022-09-21T16:54:25;1.55;;;0.20;;
71975;SDS011;60680;52.182;5.398;2022-09-21T16:56:53;2.00;;;0.20;;
71975;SDS011;60680;52.182;5.398;2022-09-21T16:59:22;4.28;;;0.30;;
71975;SDS011;60680;52.182;5.398;2022-09-21T17:01:50;1.70;;;0.20;;
71975;SDS011;60680;52.182;5.398;2022-09-21T17:04:23;3.58;;;0.17;;
71975;SDS011;60680;52.182;5.398;2022-09-21T17:06:51;3.08;;;0.20;;
71975;SDS011;60680;52.182;5.398;2022-09-21T17:11:54;1.48;;;0.20;;
71975;SDS011;60680;52.182;5.398;2022-09-21T17:14:22;2.05;;;0.22;;
71975;SDS011;60680;52.182;5.398;2022-09-21T17:16:51;2.13;;;0.50;;
71975;SDS011;60680;52.182;5.398;2022-09-21T17:19:19;1.27;;;0.20;;
71975;SDS011;60680;52.182;5.398;2022-09-21T17:21:47;1.80;;;0.40;;
71975;SDS011;60680;52.182;5.398;2022-09-21T17:24:14;1.98;;;0.40;;
71975;SDS011;60680;52.182;5.398;2022-09-21T17:27:01;2.45;;;0.40;;
71975;SDS011;60680;52.182;5.398;2022-09-21T17:29:27;4.03;;;0.45;;
71975;SDS011;60680;52.182;5.398;2022-09-21T17:31:55;1.75;;;0.50;;
71975;SDS011;60680;52.182;5.398;2022-09-21T17:34:26;4.10;;;0.77;;
71975;SDS011;60680;52.182;5.398;2022-09-21T17:36:55;5.65;;;0.95;;
71975;SDS011;60680;52.182;5.398;2022-09-21T17:39:22;3.53;;;0.70;;
71975;SDS011;60680;52.182;5.398;2022-09-21T17:41:50;2.30;;;0.55;;
71975;SDS011;60680;52.182;5.398;2022-09-21T17:44:21;2.88;;;0.40;;
71975;SDS011;60680;52.182;5.398;2022-09-21T17:49:28;4.32;;;0.40;;
71975;SDS011;60680;52.182;5.398;2022-09-21T17:51:54;1.40;;;0.20;;
71975;SDS011;60680;52.182;5.398;2022-09-21T17:54:40;1.92;;;0.30;;
71975;SDS011;60680;52.182;5.398;2022-09-21T18:00:26;1.40;;;0.28;;
71975;SDS011;60680;52.182;5.398;2022-09-21T18:03:25;1.83;;;0.30;;
71975;SDS011;60680;52.182;5.398;2022-09-21T18:05:53;1.33;;;0.20;;
71975;SDS011;60680;52.182;5.398;2022-09-21T18:08:26;3.40;;;0.30;;
71975;SDS011;60680;52.182;5.398;2022-09-21T18:25:12;2.15;;;0.50;;
71975;SDS011;60680;52.182;5.398;2022-09-21T18:27:41;1.38;;;0.30;;
71975;SDS011;60680;52.182;5.398;2022-09-21T18:30:13;0.90;;;0.35;;